createdAt,value
2022-09-28T00:00:49.869Z,23.62
2022-09-28T00:02:50.072Z,23.60
2022-09-28T00:04:50.024Z,23.63
2022-09-28T00:06:50.607Z,23.66
2022-09-28T00:08:50.028Z,23.57
2022-09-28T00:10:49.994Z,23.63
2022-09-28T00:12:49.986Z,23.62
2022-09-28T00:14:49.982Z,23.56
2022-09-28T00:16:50.065Z,23.56
2022-09-28T00:18:50.079Z,23.56
2022-09-28T00:20:49.964Z,23.61
2022-09-28T00:22:50.001Z,23.61
2022-09-28T00:24:49.968Z,23.59
2022-09-28T00:26:50.288Z,23.57
2022-09-28T00:28:49.933Z,23.66
2022-09-28T00:30:50.020Z,23.66
2022-09-28T00:32:50.044Z,23.58
2022-09-28T00:34:49.991Z,23.59
2022-09-28T00:36:49.994Z,23.62
2022-09-28T00:38:50.737Z,23.56
2022-09-28T00:40:50.089Z,23.54
2022-09-28T00:42:50.046Z,23.65
2022-09-28T00:44:49.914Z,23.56
2022-09-28T00:46:50.061Z,23.56
2022-09-28T00:48:51.023Z,23.55
2022-09-28T00:50:50.070Z,23.55
2022-09-28T00:52:49.936Z,23.66
2022-09-28T00:54:49.861Z,23.62
2022-09-28T00:56:50.006Z,23.56
2022-09-28T00:58:50.041Z,23.53
2022-09-28T01:00:49.994Z,23.56
2022-09-28T01:02:50.077Z,23.58
2022-09-28T01:04:50.076Z,23.55
2022-09-28T01:06:50.047Z,23.54
2022-09-28T01:08:50.039Z,23.61
2022-09-28T01:10:50.052Z,23.54
2022-09-28T01:12:49.990Z,23.53
2022-09-28T01:14:50.059Z,23.49
2022-09-28T01:16:50.242Z,23.55
2022-09-28T01:18:50.000Z,23.53
2022-09-28T01:20:49.974Z,23.52
2022-09-28T01:22:51.081Z,23.59
2022-09-28T01:24:50.111Z,23.53
2022-09-28T01:26:49.947Z,23.52
2022-09-28T01:28:50.047Z,23.53
2022-09-28T01:30:50.016Z,23.53
2022-09-28T01:32:50.331Z,23.51
2022-09-28T01:34:50.100Z,23.50
2022-09-28T01:36:50.069Z,23.52
2022-09-28T01:38:50.197Z,23.53
2022-09-28T01:40:50.213Z,23.53
2022-09-28T01:42:50.098Z,23.53
2022-09-28T01:44:50.139Z,23.53
2022-09-28T01:46:50.104Z,23.53
2022-09-28T01:48:49.923Z,23.53
2022-09-28T01:50:50.240Z,23.53
2022-09-28T01:52:49.994Z,23.50
2022-09-28T01:54:51.167Z,23.47
2022-09-28T01:56:50.130Z,23.47
2022-09-28T01:58:50.104Z,23.49
2022-09-28T02:00:50.047Z,23.50
2022-09-28T02:02:50.002Z,23.44
2022-09-28T02:04:50.057Z,23.49
2022-09-28T02:06:50.122Z,23.52
2022-09-28T02:08:50.081Z,23.48
2022-09-28T02:10:50.147Z,23.38
2022-09-28T02:12:50.122Z,23.47
2022-09-28T02:14:50.114Z,23.43
2022-09-28T02:16:50.113Z,23.41
2022-09-28T02:18:51.196Z,23.41
2022-09-28T02:20:51.074Z,23.42
2022-09-28T02:22:50.022Z,23.41
2022-09-28T02:24:50.090Z,23.42
2022-09-28T02:26:50.162Z,23.39
2022-09-28T02:28:50.122Z,23.36
2022-09-28T02:30:50.211Z,23.38
2022-09-28T02:32:50.150Z,23.26
2022-09-28T02:34:50.065Z,23.25
2022-09-28T02:36:50.020Z,23.29
2022-09-28T02:38:50.177Z,23.38
2022-09-28T02:40:50.113Z,23.41
2022-09-28T02:42:50.966Z,23.48
2022-09-28T02:44:51.071Z,23.51
2022-09-28T02:46:50.156Z,23.50
2022-09-28T02:49:04.953Z,23.52
2022-09-28T02:50:50.126Z,23.42
2022-09-28T02:52:51.120Z,23.42
2022-09-28T02:54:50.086Z,23.42
2022-09-28T02:56:50.176Z,23.37
2022-09-28T02:58:51.144Z,23.37
2022-09-28T03:00:50.312Z,23.36
2022-09-28T03:02:50.188Z,23.42
2022-09-28T03:04:50.202Z,23.33
2022-09-28T03:06:50.167Z,23.36
2022-09-28T03:08:50.159Z,23.31
2022-09-28T03:10:50.077Z,23.34
2022-09-28T03:12:50.173Z,23.34
2022-09-28T03:14:50.188Z,23.34
2022-09-28T03:16:50.200Z,23.34
2022-09-28T03:18:50.192Z,23.27
2022-09-28T03:20:50.892Z,23.38
2022-09-28T03:23:06.344Z,23.39
2022-09-28T03:24:50.203Z,23.34
2022-09-28T03:26:50.158Z,23.27
2022-09-28T03:28:50.051Z,23.27
2022-09-28T03:30:50.223Z,23.24
2022-09-28T03:32:50.266Z,23.25
2022-09-28T03:34:50.147Z,23.26
2022-09-28T03:36:50.257Z,23.27
2022-09-28T03:38:50.253Z,23.25
2022-09-28T03:40:50.293Z,23.22
2022-09-28T03:42:50.142Z,23.17
2022-09-28T03:44:50.456Z,23.34
2022-09-28T03:46:50.151Z,23.34
2022-09-28T03:48:50.229Z,23.42
2022-09-28T03:50:50.213Z,23.38
2022-09-28T03:52:50.225Z,23.39
2022-09-28T03:54:50.186Z,23.49
2022-09-28T03:56:50.236Z,23.34
2022-09-28T03:58:50.186Z,23.38
2022-09-28T04:00:50.389Z,23.17
2022-09-28T04:02:50.246Z,23.05
2022-09-28T04:04:50.241Z,23.17
2022-09-28T04:06:50.256Z,23.13
2022-09-28T04:08:50.221Z,23.20
2022-09-28T04:10:50.283Z,23.11
2022-09-28T04:12:51.321Z,23.13
2022-09-28T04:14:50.108Z,23.20
2022-09-28T04:16:50.212Z,23.10
2022-09-28T04:18:50.218Z,23.09
2022-09-28T04:20:50.271Z,23.09
2022-09-28T04:22:50.297Z,23.17
2022-09-28T04:24:50.187Z,23.15
2022-09-28T04:26:50.287Z,23.04
2022-09-28T04:28:51.310Z,23.11
2022-09-28T04:30:50.290Z,23.27
2022-09-28T04:32:50.179Z,23.34
2022-09-28T04:34:50.134Z,23.30
2022-09-28T04:36:50.196Z,23.25
2022-09-28T04:38:53.452Z,23.38
2022-09-28T04:40:51.322Z,23.26
2022-09-28T04:42:51.022Z,23.33
2022-09-28T04:44:50.536Z,23.26
2022-09-28T04:46:50.308Z,23.34
2022-09-28T04:48:50.148Z,23.34
2022-09-28T04:50:50.295Z,23.26
2022-09-28T04:52:50.291Z,23.34
2022-09-28T04:54:50.217Z,23.29
2022-09-28T04:56:50.307Z,23.28
2022-09-28T04:58:52.735Z,23.25
2022-09-28T05:00:50.332Z,23.30
2022-09-28T05:02:51.027Z,23.29
2022-09-28T05:04:50.296Z,23.26
2022-09-28T05:06:50.333Z,23.30
2022-09-28T05:08:50.270Z,23.36
2022-09-28T05:10:50.622Z,23.27
2022-09-28T05:12:50.319Z,23.34
2022-09-28T05:14:50.332Z,23.26
2022-09-28T05:16:50.373Z,23.27
2022-09-28T05:18:50.303Z,23.31
2022-09-28T05:20:50.246Z,23.34
2022-09-28T05:22:50.512Z,23.25
2022-09-28T05:24:50.346Z,23.22
2022-09-28T05:26:50.379Z,23.22
2022-09-28T05:28:50.420Z,23.25
2022-09-28T05:30:50.329Z,23.25
2022-09-28T05:32:50.165Z,23.25
2022-09-28T05:34:50.248Z,23.25
2022-09-28T05:36:50.353Z,23.25
2022-09-28T05:38:50.349Z,23.30
2022-09-28T05:40:53.571Z,23.28
2022-09-28T05:42:51.304Z,23.29
2022-09-28T05:44:50.400Z,23.27
2022-09-28T05:46:50.351Z,23.25
2022-09-28T05:48:50.355Z,23.31
2022-09-28T05:50:50.549Z,23.19
2022-09-28T05:52:51.379Z,23.25
2022-09-28T05:54:50.375Z,23.26
2022-09-28T05:56:51.455Z,23.18
2022-09-28T05:58:50.230Z,23.22
2022-09-28T06:00:50.373Z,23.34
2022-09-28T06:02:50.464Z,23.25
2022-09-28T06:04:50.401Z,23.26
2022-09-28T06:06:51.377Z,23.27
2022-09-28T06:08:50.550Z,23.31
2022-09-28T06:10:50.285Z,23.30
2022-09-28T06:12:50.509Z,23.25
2022-09-28T06:14:51.416Z,23.25
2022-09-28T06:16:50.538Z,23.25
2022-09-28T06:18:51.056Z,23.25
2022-09-28T06:20:50.321Z,23.34
2022-09-28T06:22:50.334Z,23.41
2022-09-28T06:24:50.370Z,23.45
2022-09-28T06:26:50.344Z,23.53
2022-09-28T06:28:50.471Z,23.53
2022-09-28T06:30:50.488Z,23.41
2022-09-28T06:32:50.407Z,23.37
2022-09-28T06:34:55.420Z,23.39
2022-09-28T06:36:50.438Z,23.39
2022-09-28T06:38:50.718Z,23.45
2022-09-28T06:40:50.469Z,23.44
2022-09-28T06:42:50.275Z,23.54
2022-09-28T06:44:50.387Z,23.54
2022-09-28T06:46:50.425Z,23.55
2022-09-28T06:48:50.265Z,23.41
2022-09-28T06:50:50.422Z,23.53
2022-09-28T06:52:50.448Z,23.49
2022-09-28T06:54:50.348Z,23.39
2022-09-28T06:56:50.283Z,23.41
2022-09-28T06:58:50.282Z,23.26
2022-09-28T07:00:50.456Z,23.39
2022-09-28T07:02:50.395Z,23.18
2022-09-28T07:04:50.424Z,23.38
2022-09-28T07:06:50.689Z,23.42
2022-09-28T07:08:56.970Z,23.41
2022-09-28T07:10:51.055Z,23.38
2022-09-28T07:12:50.468Z,23.44
2022-09-28T07:14:50.657Z,23.59
2022-09-28T07:18:50.386Z,23.81
2022-09-28T07:20:54.266Z,24.09
2022-09-28T07:22:50.467Z,24.11
2022-09-28T07:24:50.424Z,24.10
2022-09-28T07:26:50.588Z,24.09
2022-09-28T07:28:50.501Z,24.07
2022-09-28T07:30:50.569Z,23.87
2022-09-28T07:32:50.484Z,24.10
2022-09-28T07:34:51.769Z,24.04
2022-09-28T07:36:50.436Z,24.01
2022-09-28T07:38:50.325Z,24.10
2022-09-28T07:40:50.577Z,24.10
2022-09-28T07:42:50.493Z,24.05
2022-09-28T07:44:50.667Z,23.97
2022-09-28T07:46:50.492Z,24.10
2022-09-28T07:48:50.541Z,24.04
2022-09-28T07:50:50.469Z,24.11
2022-09-28T07:52:50.574Z,24.16
2022-09-28T07:54:50.441Z,24.22
2022-09-28T07:56:50.402Z,24.43
2022-09-28T07:58:50.578Z,24.81
2022-09-28T08:00:50.639Z,24.48
2022-09-28T08:02:51.471Z,24.90
2022-09-28T08:04:50.483Z,25.00
2022-09-28T08:06:50.574Z,25.12
2022-09-28T08:08:51.414Z,25.17
2022-09-28T08:10:50.582Z,25.14
2022-09-28T08:12:50.452Z,25.24
2022-09-28T08:14:50.442Z,25.51
2022-09-28T08:16:53.131Z,25.52
2022-09-28T08:18:50.518Z,25.88
2022-09-28T08:20:51.735Z,25.83
2022-09-28T08:22:50.530Z,25.94
2022-09-28T08:24:51.523Z,25.23
2022-09-28T08:26:51.766Z,25.54
2022-09-28T08:28:51.283Z,26.22
2022-09-28T08:30:50.633Z,26.35
2022-09-28T08:32:50.572Z,26.39
2022-09-28T08:34:50.513Z,26.90
2022-09-28T08:36:50.551Z,25.71
2022-09-28T08:38:50.436Z,24.83
2022-09-28T08:40:50.604Z,24.80
2022-09-28T08:42:52.207Z,25.53
2022-09-28T08:46:50.732Z,25.49
2022-09-28T08:49:12.990Z,25.44
2022-09-28T08:50:50.707Z,25.21
2022-09-28T08:52:50.584Z,25.09
2022-09-28T08:54:50.601Z,24.95
2022-09-28T08:56:50.511Z,25.09
2022-09-28T08:58:50.540Z,25.08
2022-09-28T09:00:50.582Z,24.89
2022-09-28T09:02:50.571Z,25.80
2022-09-28T09:04:50.558Z,27.65
2022-09-28T09:06:50.554Z,27.63
2022-09-28T09:08:50.431Z,27.65
2022-09-28T09:10:50.501Z,27.67
2022-09-28T09:12:50.641Z,25.95
2022-09-28T09:14:50.494Z,26.70
2022-09-28T09:16:50.602Z,25.35
2022-09-28T09:18:50.609Z,27.55
2022-09-28T09:20:50.615Z,27.56
2022-09-28T09:22:50.492Z,26.41
2022-09-28T09:24:50.874Z,27.56
2022-09-28T09:26:50.504Z,27.60
2022-09-28T09:28:50.593Z,27.65
2022-09-28T09:30:50.566Z,27.55
2022-09-28T09:32:50.911Z,27.50
2022-09-28T09:34:50.676Z,27.62
2022-09-28T09:36:50.712Z,26.04
2022-09-28T09:38:50.642Z,25.65
2022-09-28T09:40:50.613Z,25.53
2022-09-28T09:42:50.551Z,25.49
2022-09-28T09:44:50.521Z,25.42
2022-09-28T09:46:50.655Z,25.22
2022-09-28T09:48:50.629Z,25.31
2022-09-28T09:50:50.550Z,25.40
2022-09-28T09:52:50.495Z,25.25
2022-09-28T09:54:50.716Z,25.72
2022-09-28T09:56:50.676Z,27.77
2022-09-28T09:58:50.638Z,27.78
2022-09-28T10:00:50.568Z,25.64
2022-09-28T10:02:50.724Z,27.50
2022-09-28T10:04:50.666Z,27.67
2022-09-28T10:06:50.554Z,26.50
2022-09-28T10:08:50.571Z,25.65
2022-09-28T10:10:50.620Z,27.50
2022-09-28T10:12:50.647Z,25.74
2022-09-28T10:14:50.578Z,25.75
2022-09-28T10:16:50.718Z,25.65
2022-09-28T10:18:50.552Z,25.75
2022-09-28T10:20:50.713Z,27.00
2022-09-28T10:22:50.592Z,25.74
2022-09-28T10:24:50.632Z,25.72
2022-09-28T10:26:50.510Z,27.86
2022-09-28T10:28:50.676Z,25.72
2022-09-28T10:30:50.801Z,26.77
2022-09-28T10:32:50.670Z,26.08
2022-09-28T10:34:51.184Z,25.96
2022-09-28T10:36:50.732Z,25.75
2022-09-28T10:38:50.597Z,25.85
2022-09-28T10:40:50.913Z,25.99
2022-09-28T10:42:50.906Z,26.02
2022-09-28T10:44:50.697Z,25.85
2022-09-28T10:46:50.595Z,25.99
2022-09-28T10:48:50.733Z,25.72
2022-09-28T10:50:50.737Z,27.80
2022-09-28T10:52:50.697Z,26.16
2022-09-28T10:54:50.716Z,25.93
2022-09-28T10:56:50.666Z,27.85
2022-09-28T10:58:50.614Z,27.69
2022-09-28T11:00:50.767Z,27.78
2022-09-28T11:02:50.696Z,26.75
2022-09-28T11:04:50.846Z,25.75
2022-09-28T11:06:50.741Z,25.93
2022-09-28T11:08:50.753Z,25.65
2022-09-28T11:10:50.622Z,25.58
2022-09-28T11:12:50.630Z,26.06
2022-09-28T11:14:51.187Z,26.13
2022-09-28T11:16:51.071Z,26.20
2022-09-28T11:18:50.942Z,25.80
2022-09-28T11:20:50.604Z,24.90
2022-09-28T11:22:53.013Z,25.75
2022-09-28T11:24:50.639Z,26.28
2022-09-28T11:26:50.816Z,26.18
2022-09-28T11:28:50.753Z,26.18
2022-09-28T11:30:51.958Z,26.08
2022-09-28T11:32:50.768Z,26.08
2022-09-28T11:34:59.259Z,26.14
2022-09-28T11:36:50.920Z,25.92
2022-09-28T11:38:50.709Z,25.77
2022-09-28T11:40:50.877Z,26.07
2022-09-28T11:42:50.874Z,26.16
2022-09-28T11:44:50.827Z,27.81
2022-09-28T11:46:50.799Z,27.85
2022-09-28T11:48:50.759Z,26.21
2022-09-28T11:50:50.776Z,25.89
2022-09-28T11:52:50.844Z,25.84
2022-09-28T11:54:50.784Z,25.81
2022-09-28T11:56:50.826Z,25.97
2022-09-28T11:58:50.744Z,25.99
2022-09-28T12:00:50.754Z,26.14
2022-09-28T12:02:50.939Z,26.13
2022-09-28T12:04:50.626Z,25.98
2022-09-28T12:06:50.683Z,25.81
2022-09-28T12:08:50.712Z,25.80
2022-09-28T12:10:50.780Z,25.75
2022-09-28T12:12:50.768Z,25.52
2022-09-28T12:14:50.837Z,24.62
2022-09-28T12:17:05.875Z,24.48
2022-09-28T12:18:50.904Z,24.92
2022-09-28T12:20:50.802Z,25.07
2022-09-28T12:22:50.775Z,26.23
2022-09-28T12:24:50.761Z,26.29
2022-09-28T12:26:50.854Z,26.11
2022-09-28T12:28:50.858Z,26.31
2022-09-28T12:30:50.808Z,26.27
2022-09-28T12:32:50.868Z,26.10
2022-09-28T12:34:50.841Z,26.14
2022-09-28T12:36:50.848Z,25.96
2022-09-28T12:39:08.422Z,26.07
2022-09-28T12:40:50.860Z,25.99
2022-09-28T12:42:50.819Z,25.93
2022-09-28T12:44:52.147Z,25.92
2022-09-28T12:46:50.944Z,25.84
2022-09-28T12:49:24.109Z,27.74
2022-09-28T12:50:57.096Z,26.70
2022-09-28T12:52:50.855Z,26.22
2022-09-28T12:54:50.771Z,26.17
2022-09-28T12:56:50.957Z,26.30
2022-09-28T12:58:50.780Z,26.22
2022-09-28T13:00:50.833Z,26.29
2022-09-28T13:02:50.928Z,27.12
2022-09-28T13:04:50.735Z,25.81
2022-09-28T13:06:50.893Z,26.07
2022-09-28T13:08:50.782Z,26.09
2022-09-28T13:10:50.847Z,26.11
2022-09-28T13:12:50.877Z,26.10
2022-09-28T13:14:50.807Z,26.25
2022-09-28T13:16:50.826Z,26.22
2022-09-28T13:18:50.866Z,26.28
2022-09-28T13:20:50.881Z,25.93
2022-09-28T13:22:50.759Z,26.02
2022-09-28T13:24:50.850Z,26.02
2022-09-28T13:26:50.815Z,25.97
2022-09-28T13:28:51.194Z,25.93
2022-09-28T13:30:51.037Z,26.04
2022-09-28T13:32:50.913Z,25.89
2022-09-28T13:34:51.169Z,26.18
2022-09-28T13:36:50.876Z,26.16
2022-09-28T13:38:50.954Z,26.08
2022-09-28T13:40:50.888Z,26.07
2022-09-28T13:42:50.932Z,27.66
2022-09-28T13:44:50.899Z,26.04
2022-09-28T13:46:50.903Z,25.92
2022-09-28T13:48:50.905Z,26.06
2022-09-28T13:50:50.886Z,25.95
2022-09-28T13:52:50.908Z,25.84
2022-09-28T13:54:50.953Z,25.80
2022-09-28T13:56:50.864Z,27.79
2022-09-28T13:58:50.927Z,27.85
2022-09-28T14:00:51.004Z,27.74
2022-09-28T14:02:50.887Z,27.79
2022-09-28T14:04:50.937Z,27.70
2022-09-28T14:06:53.559Z,27.79
2022-09-28T14:08:50.884Z,25.90
2022-09-28T14:10:50.954Z,25.80
2022-09-28T14:12:50.887Z,26.06
2022-09-28T14:14:50.955Z,26.17
2022-09-28T14:16:50.906Z,25.95
2022-09-28T14:18:50.901Z,26.22
2022-09-28T14:20:50.886Z,26.05
2022-09-28T14:22:50.913Z,26.23
2022-09-28T14:24:50.848Z,25.23
2022-09-28T14:26:50.946Z,27.55
2022-09-28T14:28:50.938Z,26.18
2022-09-28T14:30:50.973Z,26.09
2022-09-28T14:32:50.972Z,26.20
2022-09-28T14:34:50.826Z,26.06
2022-09-28T14:36:50.854Z,27.45
2022-09-28T14:38:50.986Z,26.21
2022-09-28T14:40:50.916Z,26.17
2022-09-28T14:44:50.856Z,25.17
2022-09-28T14:46:50.925Z,24.73
2022-09-28T14:48:51.036Z,26.18
2022-09-28T14:50:50.947Z,26.29
2022-09-28T14:52:50.914Z,26.30
2022-09-28T14:54:50.886Z,26.35
2022-09-28T14:56:50.847Z,26.17
2022-09-28T14:58:50.888Z,26.08
2022-09-28T15:00:50.996Z,25.91
2022-09-28T15:02:50.972Z,26.06
2022-09-28T15:04:51.073Z,26.00
2022-09-28T15:06:50.974Z,26.22
2022-09-28T15:08:50.965Z,24.79
2022-09-28T15:10:50.905Z,24.58
2022-09-28T15:12:51.107Z,24.86
2022-09-28T15:14:50.987Z,25.16
2022-09-28T15:16:50.848Z,25.39
2022-09-28T15:18:50.984Z,25.90
2022-09-28T15:20:50.953Z,26.18
2022-09-28T15:22:51.130Z,26.03
2022-09-28T15:24:50.880Z,25.77
2022-09-28T15:26:50.970Z,25.23
2022-09-28T15:28:51.003Z,25.18
2022-09-28T15:30:51.040Z,24.46
2022-09-28T15:32:50.969Z,24.38
2022-09-28T15:34:50.902Z,24.71
2022-09-28T15:36:51.042Z,24.95
2022-09-28T15:38:51.151Z,25.09
2022-09-28T15:40:51.119Z,25.05
2022-09-28T15:42:50.931Z,25.08
2022-09-28T15:44:50.962Z,25.08
2022-09-28T15:46:50.973Z,24.99
2022-09-28T15:48:51.225Z,24.98
2022-09-28T15:50:51.014Z,24.99
2022-09-28T15:52:50.881Z,25.19
2022-09-28T15:54:50.848Z,25.13
2022-09-28T15:56:51.107Z,24.95
2022-09-28T15:58:51.108Z,24.90
2022-09-28T16:00:51.012Z,24.36
2022-09-28T16:02:51.072Z,24.30
2022-09-28T16:04:51.057Z,24.44
2022-09-28T16:06:51.067Z,24.66
2022-09-28T16:08:51.025Z,24.75
2022-09-28T16:10:50.891Z,24.83
2022-09-28T16:12:51.092Z,24.82
2022-09-28T16:14:51.070Z,24.79
2022-09-28T16:16:51.033Z,24.83
2022-09-28T16:18:50.897Z,24.71
2022-09-28T16:20:51.070Z,24.67
2022-09-28T16:22:51.146Z,24.66
2022-09-28T16:24:51.035Z,24.59
2022-09-28T16:26:50.975Z,24.59
2022-09-28T16:28:51.050Z,24.51
2022-09-28T16:30:51.090Z,24.51
2022-09-28T16:32:51.070Z,24.58
2022-09-28T16:34:51.048Z,24.51
2022-09-28T16:36:51.025Z,24.51
2022-09-28T16:38:51.069Z,24.52
2022-09-28T16:40:51.104Z,24.57
2022-09-28T16:42:51.006Z,24.55
2022-09-28T16:44:50.988Z,24.51
2022-09-28T16:46:51.110Z,24.43
2022-09-28T16:48:51.825Z,24.51
2022-09-28T16:50:51.234Z,24.42
2022-09-28T16:52:51.175Z,24.44
2022-09-28T16:54:50.997Z,24.41
2022-09-28T16:56:51.125Z,24.32
2022-09-28T16:58:51.128Z,24.38
2022-09-28T17:00:51.107Z,24.38
2022-09-28T17:02:51.410Z,24.38
2022-09-28T17:04:51.142Z,24.38
2022-09-28T17:06:51.024Z,24.36
2022-09-28T17:08:51.033Z,24.28
2022-09-28T17:11:13.107Z,24.26
2022-09-28T17:12:51.174Z,24.28
2022-09-28T17:14:51.022Z,24.21
2022-09-28T17:17:07.815Z,24.37
2022-09-28T17:18:51.060Z,24.33
2022-09-28T17:20:51.153Z,24.34
2022-09-28T17:22:51.085Z,24.21
2022-09-28T17:24:51.293Z,24.05
2022-09-28T17:26:51.104Z,24.28
2022-09-28T17:28:51.199Z,24.33
2022-09-28T17:30:51.190Z,24.33
2022-09-28T17:32:51.059Z,24.29
2022-09-28T17:35:00.801Z,24.37
2022-09-28T17:36:51.147Z,24.38
2022-09-28T17:38:51.222Z,24.35
2022-09-28T17:40:51.162Z,24.34
2022-09-28T17:42:51.226Z,24.30
2022-09-28T17:44:51.129Z,24.28
2022-09-28T17:46:51.135Z,24.38
2022-09-28T17:48:51.209Z,24.32
2022-09-28T17:50:51.137Z,24.35
2022-09-28T17:52:51.097Z,24.32
2022-09-28T17:54:51.005Z,24.33
2022-09-28T17:56:51.121Z,24.30
2022-09-28T17:58:51.161Z,24.34
2022-09-28T18:00:51.196Z,24.32
2022-09-28T18:02:51.225Z,24.28
2022-09-28T18:04:52.420Z,24.26
2022-09-28T18:06:51.265Z,24.34
2022-09-28T18:08:51.204Z,24.28
2022-09-28T18:10:51.416Z,24.23
2022-09-28T18:12:51.220Z,24.30
2022-09-28T18:14:51.230Z,24.25
2022-09-28T18:16:51.296Z,24.28
2022-09-28T18:18:51.465Z,24.26
2022-09-28T18:20:51.225Z,24.23
2022-09-28T18:22:51.218Z,24.23
2022-09-28T18:24:51.185Z,24.22
2022-09-28T18:26:51.180Z,24.24
2022-09-28T18:28:51.143Z,24.25
2022-09-28T18:30:51.296Z,24.23
2022-09-28T18:32:51.168Z,24.27
2022-09-28T18:34:51.218Z,24.24
2022-09-28T18:36:51.046Z,24.25
2022-09-28T18:38:51.259Z,24.27
2022-09-28T18:40:51.273Z,24.20
2022-09-28T18:42:51.230Z,24.21
2022-09-28T18:44:51.077Z,24.26
2022-09-28T18:46:51.266Z,24.20
2022-09-28T18:48:51.074Z,24.20
2022-09-28T18:50:51.079Z,24.23
2022-09-28T18:52:51.238Z,24.20
2022-09-28T18:54:51.453Z,24.18
2022-09-28T18:56:51.259Z,24.25
2022-09-28T18:58:51.271Z,24.16
2022-09-28T19:00:51.273Z,24.12
2022-09-28T19:02:51.450Z,24.25
2022-09-28T19:04:51.273Z,24.20
2022-09-28T19:06:51.356Z,24.19
2022-09-28T19:08:51.149Z,24.20
2022-09-28T19:10:51.187Z,24.18
2022-09-28T19:12:51.290Z,24.22
2022-09-28T19:14:51.290Z,24.23
2022-09-28T19:16:51.267Z,24.15
2022-09-28T19:18:51.341Z,24.18
2022-09-28T19:20:51.250Z,24.14
2022-09-28T19:22:51.197Z,24.20
2022-09-28T19:24:51.244Z,24.15
2022-09-28T19:26:51.219Z,24.19
2022-09-28T19:28:51.309Z,24.13
2022-09-28T19:30:51.322Z,24.14
2022-09-28T19:32:51.310Z,24.10
2022-09-28T19:34:51.244Z,24.05
2022-09-28T19:36:51.201Z,24.11
2022-09-28T19:38:51.201Z,24.10
2022-09-28T19:40:51.238Z,24.10
2022-09-28T19:42:51.198Z,24.12
2022-09-28T19:44:51.268Z,24.12
2022-09-28T19:46:51.292Z,24.12
2022-09-28T19:48:51.388Z,24.10
2022-09-28T19:50:51.323Z,24.11
2022-09-28T19:52:51.302Z,24.10
2022-09-28T19:54:51.176Z,24.10
2022-09-28T19:56:51.159Z,24.08
2022-09-28T19:58:51.183Z,24.05
2022-09-28T20:00:51.434Z,24.08
2022-09-28T20:02:51.326Z,24.05
2022-09-28T20:04:51.259Z,24.10
2022-09-28T20:06:51.435Z,24.07
2022-09-28T20:08:51.339Z,24.07
2022-09-28T20:10:51.173Z,24.07
2022-09-28T20:12:51.179Z,24.04
2022-09-28T20:14:51.260Z,24.05
2022-09-28T20:16:51.294Z,24.04
2022-09-28T20:18:51.202Z,24.01
2022-09-28T20:20:51.462Z,23.98
2022-09-28T20:22:51.226Z,24.00
2022-09-28T20:24:51.395Z,24.09
2022-09-28T20:26:51.340Z,24.04
2022-09-28T20:28:51.259Z,24.05
2022-09-28T20:30:51.439Z,24.01
2022-09-28T20:32:51.260Z,24.00
2022-09-28T20:34:51.318Z,23.96
2022-09-28T20:36:51.404Z,23.98
2022-09-28T20:38:51.324Z,24.01
2022-09-28T20:40:51.509Z,23.98
2022-09-28T20:42:51.324Z,24.00
2022-09-28T20:44:51.317Z,24.00
2022-09-28T20:46:51.289Z,23.97
2022-09-28T20:48:51.406Z,23.96
2022-09-28T20:50:51.374Z,23.96
2022-09-28T20:52:51.352Z,24.02
2022-09-28T20:54:51.381Z,24.02
2022-09-28T20:56:51.415Z,24.00
2022-09-28T20:58:51.375Z,23.97
2022-09-28T21:00:51.365Z,23.95
2022-09-28T21:02:51.439Z,23.96
2022-09-28T21:04:51.427Z,23.95
2022-09-28T21:06:51.413Z,23.96
2022-09-28T21:08:51.368Z,23.97
2022-09-28T21:10:51.242Z,23.96
2022-09-28T21:12:51.449Z,23.94
2022-09-28T21:14:51.428Z,23.93
2022-09-28T21:16:51.403Z,23.96
2022-09-28T21:18:51.433Z,23.94
2022-09-28T21:20:51.405Z,23.96
2022-09-28T21:22:51.360Z,23.88
2022-09-28T21:24:51.271Z,23.91
2022-09-28T21:26:51.396Z,23.93
2022-09-28T21:28:51.277Z,23.95
2022-09-28T21:30:51.331Z,23.83
2022-09-28T21:32:51.415Z,23.91
2022-09-28T21:34:51.450Z,23.89
2022-09-28T21:36:51.593Z,23.94
2022-09-28T21:38:51.429Z,23.93
2022-09-28T21:40:51.409Z,23.90
2022-09-28T21:42:51.443Z,23.88
2022-09-28T21:44:51.472Z,23.87
2022-09-28T21:46:51.405Z,23.88
2022-09-28T21:48:51.343Z,23.87
2022-09-28T21:50:51.273Z,23.86
2022-09-28T21:52:51.334Z,23.86
2022-09-28T21:54:51.272Z,23.83
2022-09-28T21:56:51.299Z,23.85
2022-09-28T21:58:51.468Z,23.83
2022-09-28T22:00:54.592Z,23.84
2022-09-28T22:02:51.494Z,23.84
2022-09-28T22:04:51.304Z,23.87
2022-09-28T22:06:51.445Z,23.81
2022-09-28T22:08:51.468Z,23.84
2022-09-28T22:10:51.476Z,23.81
2022-09-28T22:12:51.418Z,23.81
2022-09-28T22:14:51.466Z,23.82
2022-09-28T22:16:51.378Z,23.85
2022-09-28T22:18:51.483Z,23.81
2022-09-28T22:20:51.364Z,23.86
2022-09-28T22:22:51.451Z,23.81
2022-09-28T22:24:51.519Z,23.84
2022-09-28T22:26:51.387Z,23.81
2022-09-28T22:28:51.494Z,23.81
2022-09-28T22:30:51.544Z,23.81
2022-09-28T22:32:51.363Z,23.81
2022-09-28T22:34:51.562Z,23.84
2022-09-28T22:36:51.426Z,23.80
2022-09-28T22:38:51.499Z,23.81
2022-09-28T22:40:51.623Z,23.83
2022-09-28T22:42:51.454Z,23.80
2022-09-28T22:44:51.553Z,23.77
2022-09-28T22:46:51.572Z,23.77
2022-09-28T22:48:51.391Z,23.81
2022-09-28T22:50:51.537Z,23.80
2022-09-28T22:52:51.397Z,23.75
2022-09-28T22:54:51.406Z,23.76
2022-09-28T22:56:51.396Z,23.76
2022-09-28T22:58:51.496Z,23.75
2022-09-28T23:00:51.517Z,23.72
2022-09-28T23:02:51.550Z,23.72
2022-09-28T23:04:51.510Z,23.79
2022-09-28T23:06:51.435Z,23.73
2022-09-28T23:08:51.388Z,23.73
2022-09-28T23:10:51.543Z,23.70
2022-09-28T23:12:51.517Z,23.73
2022-09-28T23:14:51.396Z,23.72
2022-09-28T23:16:51.432Z,23.66
2022-09-28T23:18:51.576Z,23.70
2022-09-28T23:20:51.520Z,23.72
2022-09-28T23:22:51.509Z,23.69
2022-09-28T23:24:51.559Z,23.65
2022-09-28T23:26:51.527Z,23.65
2022-09-28T23:28:51.519Z,23.61
2022-09-28T23:30:51.652Z,23.62
2022-09-28T23:32:51.468Z,23.59
2022-09-28T23:34:51.472Z,23.66
2022-09-28T23:36:51.570Z,23.62
2022-09-28T23:38:51.540Z,23.63
2022-09-28T23:40:51.653Z,23.58
2022-09-28T23:42:51.480Z,23.61
2022-09-28T23:44:51.526Z,23.66
2022-09-28T23:46:51.761Z,23.68
2022-09-28T23:48:51.508Z,23.68
2022-09-28T23:50:51.585Z,23.62
2022-09-28T23:52:51.490Z,23.65
2022-09-28T23:54:51.485Z,23.63
2022-09-28T23:56:51.586Z,23.53
2022-09-28T23:58:51.545Z,23.55
